Skip Navigation Links
NOAA logo - Click to go to the NOAA homepage
NOAA's National Weather Service
Alaska Aviation Weather Unit
  NWS logo - Click to go to the NWS homepage
Left Navbar Graphic     02 AKDT = 10 GMT

   
NOAA is celebrating 200 years of science, service, and stewardship. Visit the NOAA 200th celebration Web site to learn more.
USA.gov is the U.S. Government's official Web portal to all Federal, state and local government Web resources and services.
Facebook
NWS on Facebook

AAWU Home :: Display TAF Add Bookmark
TAF PATK 270533Z 2706/2806 36005KT P6SM SKC
     FM272200 36005KT P6SM BKN100=
METAR PATK 270453Z AUTO 01004KT 10SM CLR M01/M13 A2959 RMK AO2 SLP029
     T10061128 TSNO=

METAR PATK 270553Z AUTO 36004KT 10SM CLR M02/M13 A2959 RMK AO2 SLP028
     T10221128 10028 21022 56005 TSNO=

METAR PATK 270653Z AUTO 36005KT 10SM CLR M03/M13 A2958 RMK AO2
 SLP024 T10281133 TSNO=

METAR PATK 270753Z AUTO 36005KT 10SM CLR M03/M13 A2958 RMK AO2 SLP022
     T10331133 TSNO=

METAR PATK 270853Z AUTO 03003KT 10SM CLR M08/M14 A2957 RMK AO2 SLP019
     T10831139 400281156 58008 TSNO=

METAR PATK 270953Z AUTO 02004KT 10SM CLR M09/M14 A2956 RMK AO2 SLP015
     T10891144 TSNO=


NOAA's National Weather Service
Alaska Aviation Weather Unit
6930 Sand Lake Road
Anchorage, AK 99502-1845
Disclaimer
Credits
Glossary
Privacy Policy
About Us
Career Opportunities
Contact AAWU Internet Services Site last modified: April, 17th 2012